sensor_id;sensor_type;location;lat;lon;timestamp;P1;durP1;ratioP1;P2;durP2;ratioP2
5349;SDS011;2697;42.144;24.794;2024-01-10T00:01:58;19.60;;;9.50;;
5349;SDS011;2697;42.144;24.794;2024-01-10T00:04:23;26.17;;;11.67;;
5349;SDS011;2697;42.144;24.794;2024-01-10T00:06:48;21.90;;;11.30;;
5349;SDS011;2697;42.144;24.794;2024-01-10T00:09:14;24.03;;;10.20;;
5349;SDS011;2697;42.144;24.794;2024-01-10T00:11:39;21.37;;;10.90;;
5349;SDS011;2697;42.144;24.794;2024-01-10T00:14:04;14.20;;;8.27;;
5349;SDS011;2697;42.144;24.794;2024-01-10T00:16:30;30.50;;;10.50;;
5349;SDS011;2697;42.144;24.794;2024-01-10T00:18:55;22.43;;;10.43;;
5349;SDS011;2697;42.144;24.794;2024-01-10T00:21:21;28.67;;;10.80;;
5349;SDS011;2697;42.144;24.794;2024-01-10T00:23:46;20.27;;;10.40;;
5349;SDS011;2697;42.144;24.794;2024-01-10T00:26:11;30.53;;;10.93;;
5349;SDS011;2697;42.144;24.794;2024-01-10T00:28:37;26.23;;;13.03;;
5349;SDS011;2697;42.144;24.794;2024-01-10T00:31:02;23.63;;;10.60;;
5349;SDS011;2697;42.144;24.794;2024-01-10T00:33:28;16.80;;;10.57;;
5349;SDS011;2697;42.144;24.794;2024-01-10T00:35:53;23.70;;;11.80;;
5349;SDS011;2697;42.144;24.794;2024-01-10T00:38:18;19.40;;;10.40;;
5349;SDS011;2697;42.144;24.794;2024-01-10T00:40:44;25.20;;;12.07;;
5349;SDS011;2697;42.144;24.794;2024-01-10T00:43:09;29.10;;;11.67;;
5349;SDS011;2697;42.144;24.794;2024-01-10T00:45:35;25.83;;;10.97;;
5349;SDS011;2697;42.144;24.794;2024-01-10T00:48:00;25.83;;;12.37;;
5349;SDS011;2697;42.144;24.794;2024-01-10T00:50:25;26.60;;;11.20;;
5349;SDS011;2697;42.144;24.794;2024-01-10T00:52:51;24.57;;;11.40;;
5349;SDS011;2697;42.144;24.794;2024-01-10T00:55:16;24.80;;;11.07;;
5349;SDS011;2697;42.144;24.794;2024-01-10T00:57:41;21.13;;;10.90;;
5349;SDS011;2697;42.144;24.794;2024-01-10T01:00:07;19.03;;;7.90;;
5349;SDS011;2697;42.144;24.794;2024-01-10T01:02:34;20.90;;;10.30;;
5349;SDS011;2697;42.144;24.794;2024-01-10T01:05:00;26.37;;;11.40;;
5349;SDS011;2697;42.144;24.794;2024-01-10T01:07:25;24.13;;;11.13;;
5349;SDS011;2697;42.144;24.794;2024-01-10T01:09:51;16.43;;;5.87;;
5349;SDS011;2697;42.144;24.794;2024-01-10T01:12:16;22.40;;;10.03;;
5349;SDS011;2697;42.144;24.794;2024-01-10T01:14:42;13.03;;;7.23;;
5349;SDS011;2697;42.144;24.794;2024-01-10T01:17:07;15.33;;;9.10;;
5349;SDS011;2697;42.144;24.794;2024-01-10T01:19:32;22.13;;;10.97;;
5349;SDS011;2697;42.144;24.794;2024-01-10T01:21:58;16.47;;;9.23;;
5349;SDS011;2697;42.144;24.794;2024-01-10T01:24:23;22.10;;;10.73;;
5349;SDS011;2697;42.144;24.794;2024-01-10T01:26:49;11.67;;;7.30;;
5349;SDS011;2697;42.144;24.794;2024-01-10T01:29:14;19.77;;;8.77;;
5349;SDS011;2697;42.144;24.794;2024-01-10T01:31:39;20.90;;;11.00;;
5349;SDS011;2697;42.144;24.794;2024-01-10T01:34:05;24.90;;;9.40;;
5349;SDS011;2697;42.144;24.794;2024-01-10T01:36:30;18.00;;;10.43;;
5349;SDS011;2697;42.144;24.794;2024-01-10T01:38:56;21.17;;;10.07;;
5349;SDS011;2697;42.144;24.794;2024-01-10T01:41:21;29.10;;;12.13;;
5349;SDS011;2697;42.144;24.794;2024-01-10T01:43:46;20.77;;;10.87;;
5349;SDS011;2697;42.144;24.794;2024-01-10T01:46:12;21.33;;;11.67;;
5349;SDS011;2697;42.144;24.794;2024-01-10T01:48:37;15.80;;;7.67;;
5349;SDS011;2697;42.144;24.794;2024-01-10T01:51:06;19.93;;;10.90;;
5349;SDS011;2697;42.144;24.794;2024-01-10T01:53:33;22.33;;;10.37;;
5349;SDS011;2697;42.144;24.794;2024-01-10T01:56:00;18.70;;;9.50;;
5349;SDS011;2697;42.144;24.794;2024-01-10T01:58:29;29.77;;;12.30;;
5349;SDS011;2697;42.144;24.794;2024-01-10T02:00:55;18.00;;;9.80;;
5349;SDS011;2697;42.144;24.794;2024-01-10T02:03:20;21.50;;;8.53;;
5349;SDS011;2697;42.144;24.794;2024-01-10T02:05:46;25.77;;;11.60;;
5349;SDS011;2697;42.144;24.794;2024-01-10T02:08:12;30.43;;;13.30;;
5349;SDS011;2697;42.144;24.794;2024-01-10T02:10:38;33.53;;;14.00;;
5349;SDS011;2697;42.144;24.794;2024-01-10T02:13:04;26.93;;;10.57;;
5349;SDS011;2697;42.144;24.794;2024-01-10T02:15:30;25.97;;;12.33;;
5349;SDS011;2697;42.144;24.794;2024-01-10T02:17:56;29.63;;;12.70;;
5349;SDS011;2697;42.144;24.794;2024-01-10T02:20:21;27.63;;;12.80;;
5349;SDS011;2697;42.144;24.794;2024-01-10T02:22:47;28.70;;;12.10;;
5349;SDS011;2697;42.144;24.794;2024-01-10T02:25:12;38.10;;;13.60;;
5349;SDS011;2697;42.144;24.794;2024-01-10T02:27:39;25.23;;;13.23;;
5349;SDS011;2697;42.144;24.794;2024-01-10T02:30:05;25.10;;;12.83;;
5349;SDS011;2697;42.144;24.794;2024-01-10T02:32:32;34.77;;;12.80;;
5349;SDS011;2697;42.144;24.794;2024-01-10T02:34:58;22.87;;;12.13;;
5349;SDS011;2697;42.144;24.794;2024-01-10T02:37:23;27.60;;;13.60;;
5349;SDS011;2697;42.144;24.794;2024-01-10T02:39:49;26.23;;;13.17;;
5349;SDS011;2697;42.144;24.794;2024-01-10T02:42:14;31.50;;;12.80;;
5349;SDS011;2697;42.144;24.794;2024-01-10T02:44:40;24.60;;;11.90;;
5349;SDS011;2697;42.144;24.794;2024-01-10T02:47:05;35.07;;;13.43;;
5349;SDS011;2697;42.144;24.794;2024-01-10T02:49:32;26.87;;;12.80;;
5349;SDS011;2697;42.144;24.794;2024-01-10T02:51:57;22.80;;;10.03;;
5349;SDS011;2697;42.144;24.794;2024-01-10T02:54:23;27.70;;;10.57;;
5349;SDS011;2697;42.144;24.794;2024-01-10T02:56:48;25.83;;;11.00;;
5349;SDS011;2697;42.144;24.794;2024-01-10T02:59:14;20.40;;;10.53;;
5349;SDS011;2697;42.144;24.794;2024-01-10T03:01:39;20.03;;;9.87;;
5349;SDS011;2697;42.144;24.794;2024-01-10T03:04:04;25.47;;;10.93;;
5349;SDS011;2697;42.144;24.794;2024-01-10T03:06:30;18.93;;;10.27;;
5349;SDS011;2697;42.144;24.794;2024-01-10T03:08:55;22.43;;;10.20;;
5349;SDS011;2697;42.144;24.794;2024-01-10T03:11:21;24.30;;;10.77;;
5349;SDS011;2697;42.144;24.794;2024-01-10T03:13:47;21.17;;;9.40;;
5349;SDS011;2697;42.144;24.794;2024-01-10T03:16:13;19.47;;;10.50;;
5349;SDS011;2697;42.144;24.794;2024-01-10T03:18:39;23.13;;;11.27;;
5349;SDS011;2697;42.144;24.794;2024-01-10T03:21:04;23.23;;;10.80;;
5349;SDS011;2697;42.144;24.794;2024-01-10T03:23:30;17.87;;;8.77;;
5349;SDS011;2697;42.144;24.794;2024-01-10T03:25:56;18.87;;;9.07;;
5349;SDS011;2697;42.144;24.794;2024-01-10T03:28:21;21.43;;;9.53;;
5349;SDS011;2697;42.144;24.794;2024-01-10T03:30:47;14.87;;;8.70;;
5349;SDS011;2697;42.144;24.794;2024-01-10T03:33:12;19.13;;;8.07;;
5349;SDS011;2697;42.144;24.794;2024-01-10T03:35:38;19.50;;;10.17;;
5349;SDS011;2697;42.144;24.794;2024-01-10T03:38:03;19.90;;;9.73;;
5349;SDS011;2697;42.144;24.794;2024-01-10T03:40:29;18.20;;;9.60;;
5349;SDS011;2697;42.144;24.794;2024-01-10T03:42:54;13.17;;;5.33;;
5349;SDS011;2697;42.144;24.794;2024-01-10T03:45:20;18.10;;;7.40;;
5349;SDS011;2697;42.144;24.794;2024-01-10T03:47:48;11.93;;;7.57;;
5349;SDS011;2697;42.144;24.794;2024-01-10T03:50:16;13.20;;;6.73;;
5349;SDS011;2697;42.144;24.794;2024-01-10T03:52:43;13.27;;;7.10;;
5349;SDS011;2697;42.144;24.794;2024-01-10T03:55:09;13.17;;;6.83;;
5349;SDS011;2697;42.144;24.794;2024-01-10T03:57:34;8.30;;;4.10;;
5349;SDS011;2697;42.144;24.794;2024-01-10T04:00:00;18.13;;;6.87;;
5349;SDS011;2697;42.144;24.794;2024-01-10T04:02:25;26.13;;;11.30;;
5349;SDS011;2697;42.144;24.794;2024-01-10T04:04:53;17.77;;;8.50;;
5349;SDS011;2697;42.144;24.794;2024-01-10T04:07:18;15.37;;;8.13;;
5349;SDS011;2697;42.144;24.794;2024-01-10T04:09:44;19.30;;;9.03;;
5349;SDS011;2697;42.144;24.794;2024-01-10T04:12:09;21.10;;;8.30;;
5349;SDS011;2697;42.144;24.794;2024-01-10T04:14:35;21.27;;;9.50;;
5349;SDS011;2697;42.144;24.794;2024-01-10T04:17:00;17.57;;;7.33;;
5349;SDS011;2697;42.144;24.794;2024-01-10T04:19:26;26.63;;;10.00;;
5349;SDS011;2697;42.144;24.794;2024-01-10T04:21:52;19.40;;;7.90;;
5349;SDS011;2697;42.144;24.794;2024-01-10T04:24:17;17.23;;;8.53;;
5349;SDS011;2697;42.144;24.794;2024-01-10T04:26:42;22.57;;;9.90;;
5349;SDS011;2697;42.144;24.794;2024-01-10T04:29:08;16.30;;;8.30;;
5349;SDS011;2697;42.144;24.794;2024-01-10T04:31:33;17.80;;;8.27;;
5349;SDS011;2697;42.144;24.794;2024-01-10T04:34:00;27.13;;;9.87;;
5349;SDS011;2697;42.144;24.794;2024-01-10T04:36:26;22.47;;;10.10;;
5349;SDS011;2697;42.144;24.794;2024-01-10T04:38:51;21.70;;;10.83;;
5349;SDS011;2697;42.144;24.794;2024-01-10T04:41:17;16.13;;;8.33;;
5349;SDS011;2697;42.144;24.794;2024-01-10T04:43:42;24.33;;;11.80;;
5349;SDS011;2697;42.144;24.794;2024-01-10T04:46:07;17.83;;;9.80;;
5349;SDS011;2697;42.144;24.794;2024-01-10T04:48:35;25.57;;;10.40;;
5349;SDS011;2697;42.144;24.794;2024-01-10T04:51:00;20.97;;;10.53;;
5349;SDS011;2697;42.144;24.794;2024-01-10T04:53:26;20.73;;;9.67;;
5349;SDS011;2697;42.144;24.794;2024-01-10T04:55:51;28.00;;;11.83;;
5349;SDS011;2697;42.144;24.794;2024-01-10T04:58:16;26.03;;;10.50;;
5349;SDS011;2697;42.144;24.794;2024-01-10T05:00:42;26.70;;;12.10;;
5349;SDS011;2697;42.144;24.794;2024-01-10T05:03:07;24.43;;;11.80;;
5349;SDS011;2697;42.144;24.794;2024-01-10T05:05:33;26.83;;;11.67;;
5349;SDS011;2697;42.144;24.794;2024-01-10T05:07:58;24.87;;;10.43;;
5349;SDS011;2697;42.144;24.794;2024-01-10T05:10:23;34.27;;;10.43;;
5349;SDS011;2697;42.144;24.794;2024-01-10T05:12:49;26.40;;;12.20;;
5349;SDS011;2697;42.144;24.794;2024-01-10T05:15:14;20.77;;;10.37;;
5349;SDS011;2697;42.144;24.794;2024-01-10T05:17:40;25.57;;;11.00;;
5349;SDS011;2697;42.144;24.794;2024-01-10T05:20:05;37.03;;;14.87;;
5349;SDS011;2697;42.144;24.794;2024-01-10T05:22:31;29.10;;;11.67;;
5349;SDS011;2697;42.144;24.794;2024-01-10T05:24:56;32.07;;;13.50;;
5349;SDS011;2697;42.144;24.794;2024-01-10T05:27:22;32.20;;;15.90;;
5349;SDS011;2697;42.144;24.794;2024-01-10T05:29:48;32.70;;;14.33;;
5349;SDS011;2697;42.144;24.794;2024-01-10T05:32:13;29.00;;;11.23;;
5349;SDS011;2697;42.144;24.794;2024-01-10T05:34:39;35.03;;;14.47;;
5349;SDS011;2697;42.144;24.794;2024-01-10T05:37:04;40.40;;;13.23;;
5349;SDS011;2697;42.144;24.794;2024-01-10T05:39:29;28.87;;;12.60;;
5349;SDS011;2697;42.144;24.794;2024-01-10T05:41:55;26.63;;;12.80;;
5349;SDS011;2697;42.144;24.794;2024-01-10T05:44:20;29.70;;;13.67;;
5349;SDS011;2697;42.144;24.794;2024-01-10T05:46:45;36.97;;;16.30;;
5349;SDS011;2697;42.144;24.794;2024-01-10T05:49:12;35.20;;;16.33;;
5349;SDS011;2697;42.144;24.794;2024-01-10T05:51:38;36.00;;;14.40;;
5349;SDS011;2697;42.144;24.794;2024-01-10T05:54:03;37.10;;;17.10;;
5349;SDS011;2697;42.144;24.794;2024-01-10T05:56:29;33.50;;;15.60;;
5349;SDS011;2697;42.144;24.794;2024-01-10T05:58:54;36.77;;;16.30;;
5349;SDS011;2697;42.144;24.794;2024-01-10T06:01:20;38.00;;;15.90;;
5349;SDS011;2697;42.144;24.794;2024-01-10T06:03:45;38.43;;;16.23;;
5349;SDS011;2697;42.144;24.794;2024-01-10T06:06:10;37.77;;;17.83;;
5349;SDS011;2697;42.144;24.794;2024-01-10T06:08:36;33.93;;;14.97;;
5349;SDS011;2697;42.144;24.794;2024-01-10T06:11:04;44.00;;;16.90;;
5349;SDS011;2697;42.144;24.794;2024-01-10T06:13:33;39.27;;;17.40;;
5349;SDS011;2697;42.144;24.794;2024-01-10T06:15:59;30.73;;;15.20;;
5349;SDS011;2697;42.144;24.794;2024-01-10T06:18:24;45.67;;;16.80;;
5349;SDS011;2697;42.144;24.794;2024-01-10T06:20:50;34.40;;;16.53;;
5349;SDS011;2697;42.144;24.794;2024-01-10T06:23:17;37.07;;;15.50;;
5349;SDS011;2697;42.144;24.794;2024-01-10T06:25:42;42.80;;;17.70;;
5349;SDS011;2697;42.144;24.794;2024-01-10T06:28:07;44.93;;;19.50;;
5349;SDS011;2697;42.144;24.794;2024-01-10T06:30:33;45.37;;;19.60;;
5349;SDS011;2697;42.144;24.794;2024-01-10T06:33:00;46.10;;;19.43;;
5349;SDS011;2697;42.144;24.794;2024-01-10T06:35:25;46.70;;;18.87;;
5349;SDS011;2697;42.144;24.794;2024-01-10T06:37:51;59.63;;;18.67;;
5349;SDS011;2697;42.144;24.794;2024-01-10T06:40:16;37.60;;;16.20;;
5349;SDS011;2697;42.144;24.794;2024-01-10T06:42:42;33.00;;;16.33;;
5349;SDS011;2697;42.144;24.794;2024-01-10T06:45:07;30.27;;;14.43;;
5349;SDS011;2697;42.144;24.794;2024-01-10T06:47:33;34.20;;;17.13;;
5349;SDS011;2697;42.144;24.794;2024-01-10T06:49:59;45.67;;;17.83;;
5349;SDS011;2697;42.144;24.794;2024-01-10T06:52:24;39.67;;;17.83;;
5349;SDS011;2697;42.144;24.794;2024-01-10T06:54:50;39.20;;;17.53;;
5349;SDS011;2697;42.144;24.794;2024-01-10T06:57:15;40.43;;;11.53;;
5349;SDS011;2697;42.144;24.794;2024-01-10T06:59:40;26.47;;;11.50;;
5349;SDS011;2697;42.144;24.794;2024-01-10T07:02:06;25.33;;;12.47;;
5349;SDS011;2697;42.144;24.794;2024-01-10T07:04:31;30.00;;;12.03;;
5349;SDS011;2697;42.144;24.794;2024-01-10T07:06:57;25.67;;;11.20;;
5349;SDS011;2697;42.144;24.794;2024-01-10T07:09:22;31.77;;;13.90;;
5349;SDS011;2697;42.144;24.794;2024-01-10T07:11:48;32.03;;;14.17;;
5349;SDS011;2697;42.144;24.794;2024-01-10T07:14:14;27.90;;;13.93;;
5349;SDS011;2697;42.144;24.794;2024-01-10T07:16:40;27.23;;;11.67;;
5349;SDS011;2697;42.144;24.794;2024-01-10T07:19:10;32.47;;;14.77;;
5349;SDS011;2697;42.144;24.794;2024-01-10T07:21:38;26.30;;;14.00;;
5349;SDS011;2697;42.144;24.794;2024-01-10T07:24:05;36.20;;;13.07;;
5349;SDS011;2697;42.144;24.794;2024-01-10T07:26:32;28.90;;;13.40;;
5349;SDS011;2697;42.144;24.794;2024-01-10T07:28:57;36.30;;;15.33;;
5349;SDS011;2697;42.144;24.794;2024-01-10T07:31:23;28.80;;;12.67;;
5349;SDS011;2697;42.144;24.794;2024-01-10T07:33:49;32.87;;;13.80;;
5349;SDS011;2697;42.144;24.794;2024-01-10T07:36:14;28.43;;;13.00;;
5349;SDS011;2697;42.144;24.794;2024-01-10T07:38:39;31.13;;;14.70;;
5349;SDS011;2697;42.144;24.794;2024-01-10T07:41:05;50.93;;;16.47;;
5349;SDS011;2697;42.144;24.794;2024-01-10T07:43:30;36.73;;;14.10;;
5349;SDS011;2697;42.144;24.794;2024-01-10T07:45:56;43.27;;;17.60;;
5349;SDS011;2697;42.144;24.794;2024-01-10T07:48:21;35.00;;;15.67;;
5349;SDS011;2697;42.144;24.794;2024-01-10T07:50:47;33.23;;;11.90;;
5349;SDS011;2697;42.144;24.794;2024-01-10T07:53:12;14.10;;;8.30;;
5349;SDS011;2697;42.144;24.794;2024-01-10T07:55:38;13.97;;;6.50;;
5349;SDS011;2697;42.144;24.794;2024-01-10T07:58:03;18.30;;;8.30;;
5349;SDS011;2697;42.144;24.794;2024-01-10T08:00:30;23.83;;;7.70;;
5349;SDS011;2697;42.144;24.794;2024-01-10T08:02:56;25.07;;;7.90;;
5349;SDS011;2697;42.144;24.794;2024-01-10T08:05:23;15.80;;;8.13;;
5349;SDS011;2697;42.144;24.794;2024-01-10T08:07:48;17.23;;;7.43;;
5349;SDS011;2697;42.144;24.794;2024-01-10T08:10:14;24.40;;;7.93;;
5349;SDS011;2697;42.144;24.794;2024-01-10T08:12:40;21.77;;;8.77;;
5349;SDS011;2697;42.144;24.794;2024-01-10T08:15:09;18.47;;;9.10;;
5349;SDS011;2697;42.144;24.794;2024-01-10T08:17:35;19.03;;;6.97;;
5349;SDS011;2697;42.144;24.794;2024-01-10T08:20:02;28.27;;;7.93;;
5349;SDS011;2697;42.144;24.794;2024-01-10T08:22:29;16.30;;;7.77;;
5349;SDS011;2697;42.144;24.794;2024-01-10T08:24:55;16.57;;;7.50;;
5349;SDS011;2697;42.144;24.794;2024-01-10T08:27:21;37.00;;;8.47;;
5349;SDS011;2697;42.144;24.794;2024-01-10T08:29:46;23.20;;;8.60;;
5349;SDS011;2697;42.144;24.794;2024-01-10T08:32:12;22.40;;;9.07;;
5349;SDS011;2697;42.144;24.794;2024-01-10T08:34:37;20.50;;;8.67;;
5349;SDS011;2697;42.144;24.794;2024-01-10T08:37:02;22.60;;;9.73;;
5349;SDS011;2697;42.144;24.794;2024-01-10T08:39:28;24.10;;;9.70;;
5349;SDS011;2697;42.144;24.794;2024-01-10T08:41:55;19.37;;;9.53;;
5349;SDS011;2697;42.144;24.794;2024-01-10T08:44:24;28.27;;;9.57;;
5349;SDS011;2697;42.144;24.794;2024-01-10T08:46:49;31.80;;;10.40;;
5349;SDS011;2697;42.144;24.794;2024-01-10T08:49:18;22.00;;;12.50;;
5349;SDS011;2697;42.144;24.794;2024-01-10T08:51:43;28.53;;;11.57;;
5349;SDS011;2697;42.144;24.794;2024-01-10T08:54:11;30.53;;;11.87;;
5349;SDS011;2697;42.144;24.794;2024-01-10T08:56:41;32.50;;;14.50;;
5349;SDS011;2697;42.144;24.794;2024-01-10T08:59:09;31.00;;;14.00;;
5349;SDS011;2697;42.144;24.794;2024-01-10T09:01:35;27.83;;;13.90;;
5349;SDS011;2697;42.144;24.794;2024-01-10T09:04:01;36.43;;;15.70;;
5349;SDS011;2697;42.144;24.794;2024-01-10T09:06:26;31.03;;;15.50;;
5349;SDS011;2697;42.144;24.794;2024-01-10T09:08:52;31.23;;;15.37;;
5349;SDS011;2697;42.144;24.794;2024-01-10T09:11:17;43.97;;;16.23;;
5349;SDS011;2697;42.144;24.794;2024-01-10T09:13:42;37.90;;;19.40;;
5349;SDS011;2697;42.144;24.794;2024-01-10T09:16:08;32.33;;;17.63;;
5349;SDS011;2697;42.144;24.794;2024-01-10T09:18:34;53.47;;;21.20;;
5349;SDS011;2697;42.144;24.794;2024-01-10T09:21:00;41.07;;;19.10;;
5349;SDS011;2697;42.144;24.794;2024-01-10T09:23:25;42.80;;;16.33;;
5349;SDS011;2697;42.144;24.794;2024-01-10T09:25:52;36.70;;;16.20;;
5349;SDS011;2697;42.144;24.794;2024-01-10T09:28:17;37.00;;;14.33;;
5349;SDS011;2697;42.144;24.794;2024-01-10T09:30:43;34.00;;;14.90;;
5349;SDS011;2697;42.144;24.794;2024-01-10T09:33:09;34.63;;;15.33;;
5349;SDS011;2697;42.144;24.794;2024-01-10T09:35:34;33.63;;;14.70;;
5349;SDS011;2697;42.144;24.794;2024-01-10T09:37:59;48.87;;;15.23;;
5349;SDS011;2697;42.144;24.794;2024-01-10T09:40:25;38.73;;;16.00;;
5349;SDS011;2697;42.144;24.794;2024-01-10T09:42:52;47.03;;;17.97;;
5349;SDS011;2697;42.144;24.794;2024-01-10T09:45:19;39.23;;;15.47;;
5349;SDS011;2697;42.144;24.794;2024-01-10T09:47:48;51.47;;;18.20;;
5349;SDS011;2697;42.144;24.794;2024-01-10T09:50:14;28.93;;;16.00;;
5349;SDS011;2697;42.144;24.794;2024-01-10T09:52:41;42.00;;;17.20;;
5349;SDS011;2697;42.144;24.794;2024-01-10T09:55:15;41.67;;;19.13;;
5349;SDS011;2697;42.144;24.794;2024-01-10T09:57:41;34.97;;;16.07;;
5349;SDS011;2697;42.144;24.794;2024-01-10T10:00:08;42.33;;;18.90;;
5349;SDS011;2697;42.144;24.794;2024-01-10T10:02:36;36.60;;;15.40;;
5349;SDS011;2697;42.144;24.794;2024-01-10T10:05:03;36.80;;;16.90;;
5349;SDS011;2697;42.144;24.794;2024-01-10T10:07:50;37.23;;;14.60;;
5349;SDS011;2697;42.144;24.794;2024-01-10T10:10:18;29.43;;;14.33;;
5349;SDS011;2697;42.144;24.794;2024-01-10T10:12:45;37.83;;;15.90;;
5349;SDS011;2697;42.144;24.794;2024-01-10T10:15:13;30.07;;;14.03;;
5349;SDS011;2697;42.144;24.794;2024-01-10T10:17:39;38.33;;;14.90;;
5349;SDS011;2697;42.144;24.794;2024-01-10T10:20:11;29.07;;;13.97;;
5349;SDS011;2697;42.144;24.794;2024-01-10T10:22:38;39.17;;;14.67;;
5349;SDS011;2697;42.144;24.794;2024-01-10T10:25:04;40.27;;;17.47;;
5349;SDS011;2697;42.144;24.794;2024-01-10T10:27:30;40.43;;;15.40;;
5349;SDS011;2697;42.144;24.794;2024-01-10T10:29:55;41.23;;;17.73;;
5349;SDS011;2697;42.144;24.794;2024-01-10T10:32:21;39.00;;;18.43;;
5349;SDS011;2697;42.144;24.794;2024-01-10T10:34:46;25.70;;;11.80;;
5349;SDS011;2697;42.144;24.794;2024-01-10T10:37:12;13.37;;;7.07;;
5349;SDS011;2697;42.144;24.794;2024-01-10T10:39:37;31.00;;;10.10;;
5349;SDS011;2697;42.144;24.794;2024-01-10T10:42:03;19.90;;;9.13;;
5349;SDS011;2697;42.144;24.794;2024-01-10T10:44:29;19.80;;;10.13;;
5349;SDS011;2697;42.144;24.794;2024-01-10T10:47:03;21.67;;;10.37;;
5349;SDS011;2697;42.144;24.794;2024-01-10T10:49:31;23.90;;;10.17;;
5349;SDS011;2697;42.144;24.794;2024-01-10T10:51:58;20.27;;;10.20;;
5349;SDS011;2697;42.144;24.794;2024-01-10T10:54:25;19.60;;;9.70;;
5349;SDS011;2697;42.144;24.794;2024-01-10T10:56:57;13.80;;;5.80;;
5349;SDS011;2697;42.144;24.794;2024-01-10T10:59:25;16.50;;;8.00;;
5349;SDS011;2697;42.144;24.794;2024-01-10T11:01:51;19.70;;;7.57;;
5349;SDS011;2697;42.144;24.794;2024-01-10T11:04:18;10.93;;;6.40;;
5349;SDS011;2697;42.144;24.794;2024-01-10T11:06:46;12.93;;;7.00;;
5349;SDS011;2697;42.144;24.794;2024-01-10T11:09:11;12.90;;;7.13;;
5349;SDS011;2697;42.144;24.794;2024-01-10T11:14:54;15.63;;;6.93;;
5349;SDS011;2697;42.144;24.794;2024-01-10T11:25:53;5.83;;;4.23;;
5349;SDS011;2697;42.144;24.794;2024-01-10T11:28:19;12.93;;;5.80;;
5349;SDS011;2697;42.144;24.794;2024-01-10T11:30:48;11.20;;;5.73;;
5349;SDS011;2697;42.144;24.794;2024-01-10T11:33:22;10.83;;;5.53;;
5349;SDS011;2697;42.144;24.794;2024-01-10T11:38:37;11.87;;;5.80;;
5349;SDS011;2697;42.144;24.794;2024-01-10T11:41:04;36.37;;;6.47;;
5349;SDS011;2697;42.144;24.794;2024-01-10T11:43:29;13.80;;;6.80;;
5349;SDS011;2697;42.144;24.794;2024-01-10T11:45:55;12.27;;;6.60;;
5349;SDS011;2697;42.144;24.794;2024-01-10T11:48:30;12.33;;;7.10;;
5349;SDS011;2697;42.144;24.794;2024-01-10T11:50:57;17.60;;;6.47;;
5349;SDS011;2697;42.144;24.794;2024-01-10T11:53:42;9.70;;;5.53;;
5349;SDS011;2697;42.144;24.794;2024-01-10T11:56:12;12.43;;;6.03;;
5349;SDS011;2697;42.144;24.794;2024-01-10T11:59:01;8.60;;;6.00;;
5349;SDS011;2697;42.144;24.794;2024-01-10T12:01:33;7.33;;;5.03;;
5349;SDS011;2697;42.144;24.794;2024-01-10T12:04:00;10.90;;;6.57;;
5349;SDS011;2697;42.144;24.794;2024-01-10T12:06:27;20.77;;;5.90;;
5349;SDS011;2697;42.144;24.794;2024-01-10T12:08:52;14.50;;;6.83;;
5349;SDS011;2697;42.144;24.794;2024-01-10T12:11:18;12.30;;;5.63;;
5349;SDS011;2697;42.144;24.794;2024-01-10T12:13:43;18.20;;;7.00;;
5349;SDS011;2697;42.144;24.794;2024-01-10T12:16:12;14.33;;;7.37;;
5349;SDS011;2697;42.144;24.794;2024-01-10T12:18:38;12.00;;;6.50;;
5349;SDS011;2697;42.144;24.794;2024-01-10T12:21:04;12.80;;;6.27;;
5349;SDS011;2697;42.144;24.794;2024-01-10T12:23:29;11.73;;;6.50;;
5349;SDS011;2697;42.144;24.794;2024-01-10T12:25:57;17.70;;;4.97;;
5349;SDS011;2697;42.144;24.794;2024-01-10T12:28:22;20.67;;;8.87;;
5349;SDS011;2697;42.144;24.794;2024-01-10T12:30:48;16.43;;;9.90;;
5349;SDS011;2697;42.144;24.794;2024-01-10T12:33:13;25.37;;;9.53;;
5349;SDS011;2697;42.144;24.794;2024-01-10T12:35:39;22.17;;;9.90;;
5349;SDS011;2697;42.144;24.794;2024-01-10T12:38:07;18.53;;;9.57;;
5349;SDS011;2697;42.144;24.794;2024-01-10T12:40:36;23.30;;;11.03;;
5349;SDS011;2697;42.144;24.794;2024-01-10T12:43:02;25.67;;;9.93;;
5349;SDS011;2697;42.144;24.794;2024-01-10T12:45:31;16.23;;;7.33;;
5349;SDS011;2697;42.144;24.794;2024-01-10T12:48:00;19.47;;;7.40;;
5349;SDS011;2697;42.144;24.794;2024-01-10T12:50:27;18.87;;;9.00;;
5349;SDS011;2697;42.144;24.794;2024-01-10T12:52:53;14.50;;;8.10;;
5349;SDS011;2697;42.144;24.794;2024-01-10T12:55:18;25.37;;;9.10;;
5349;SDS011;2697;42.144;24.794;2024-01-10T12:57:44;16.30;;;5.67;;
5349;SDS011;2697;42.144;24.794;2024-01-10T13:00:09;15.10;;;7.23;;
5349;SDS011;2697;42.144;24.794;2024-01-10T13:02:36;26.20;;;11.40;;
5349;SDS011;2697;42.144;24.794;2024-01-10T13:05:02;33.40;;;13.70;;
5349;SDS011;2697;42.144;24.794;2024-01-10T13:07:34;27.70;;;13.87;;
5349;SDS011;2697;42.144;24.794;2024-01-10T13:10:00;41.50;;;15.30;;
5349;SDS011;2697;42.144;24.794;2024-01-10T13:12:26;36.30;;;12.50;;
5349;SDS011;2697;42.144;24.794;2024-01-10T13:14:52;25.63;;;12.70;;
5349;SDS011;2697;42.144;24.794;2024-01-10T13:17:18;30.20;;;13.37;;
5349;SDS011;2697;42.144;24.794;2024-01-10T13:19:43;27.87;;;13.97;;
5349;SDS011;2697;42.144;24.794;2024-01-10T13:22:13;26.53;;;12.27;;
5349;SDS011;2697;42.144;24.794;2024-01-10T13:24:40;29.23;;;12.37;;
5349;SDS011;2697;42.144;24.794;2024-01-10T13:27:07;28.90;;;13.00;;
5349;SDS011;2697;42.144;24.794;2024-01-10T13:29:34;27.60;;;13.03;;
5349;SDS011;2697;42.144;24.794;2024-01-10T13:32:02;20.43;;;10.40;;
5349;SDS011;2697;42.144;24.794;2024-01-10T13:34:28;28.43;;;14.43;;
5349;SDS011;2697;42.144;24.794;2024-01-10T13:36:53;33.93;;;14.13;;
5349;SDS011;2697;42.144;24.794;2024-01-10T13:39:18;28.90;;;13.67;;
5349;SDS011;2697;42.144;24.794;2024-01-10T13:41:44;32.37;;;16.07;;
5349;SDS011;2697;42.144;24.794;2024-01-10T13:44:09;26.67;;;11.90;;
5349;SDS011;2697;42.144;24.794;2024-01-10T13:46:35;35.57;;;14.57;;
5349;SDS011;2697;42.144;24.794;2024-01-10T13:49:00;29.83;;;14.57;;
5349;SDS011;2697;42.144;24.794;2024-01-10T13:51:26;31.33;;;14.87;;
5349;SDS011;2697;42.144;24.794;2024-01-10T13:53:52;36.00;;;15.30;;
5349;SDS011;2697;42.144;24.794;2024-01-10T13:56:17;32.17;;;15.87;;
5349;SDS011;2697;42.144;24.794;2024-01-10T13:58:42;30.97;;;14.60;;
5349;SDS011;2697;42.144;24.794;2024-01-10T14:01:08;39.20;;;14.70;;
5349;SDS011;2697;42.144;24.794;2024-01-10T14:03:34;40.40;;;14.33;;
5349;SDS011;2697;42.144;24.794;2024-01-10T14:05:59;29.97;;;13.90;;
5349;SDS011;2697;42.144;24.794;2024-01-10T14:08:25;34.10;;;15.97;;
5349;SDS011;2697;42.144;24.794;2024-01-10T14:10:50;29.27;;;14.37;;
5349;SDS011;2697;42.144;24.794;2024-01-10T14:13:16;35.40;;;15.43;;
5349;SDS011;2697;42.144;24.794;2024-01-10T14:15:41;34.20;;;14.37;;
5349;SDS011;2697;42.144;24.794;2024-01-10T14:18:07;36.63;;;14.50;;
5349;SDS011;2697;42.144;24.794;2024-01-10T14:20:32;33.43;;;14.73;;
5349;SDS011;2697;42.144;24.794;2024-01-10T14:22:58;36.63;;;15.03;;
5349;SDS011;2697;42.144;24.794;2024-01-10T14:25:24;49.70;;;15.30;;
5349;SDS011;2697;42.144;24.794;2024-01-10T14:27:51;35.83;;;16.03;;
5349;SDS011;2697;42.144;24.794;2024-01-10T14:30:17;43.63;;;16.13;;
5349;SDS011;2697;42.144;24.794;2024-01-10T14:32:44;35.20;;;16.17;;
5349;SDS011;2697;42.144;24.794;2024-01-10T14:35:12;29.30;;;15.77;;
5349;SDS011;2697;42.144;24.794;2024-01-10T14:37:38;33.77;;;15.57;;
5349;SDS011;2697;42.144;24.794;2024-01-10T14:40:03;36.00;;;16.60;;
5349;SDS011;2697;42.144;24.794;2024-01-10T14:42:29;41.87;;;17.50;;
5349;SDS011;2697;42.144;24.794;2024-01-10T14:44:55;36.30;;;15.67;;
5349;SDS011;2697;42.144;24.794;2024-01-10T14:47:20;27.87;;;14.97;;